LFJRLFRS

Guest
Details From LFJR - Angers Marce
To LFRS - Nantes_Atlantique
Flight Number -
Tags generated
Created
Modified
Stats Distance 58 nm / 108 km
Max Altitude 8,000 ft / 2,438 m
Waypoints 3
Social Downloads 1
Likes 0
Share VATSIM

Download

Looking for another format? Having issues loading an existing format? Contact us
Advertisement - Login to hide

Notes

Basic altitude profile: - Ascent Rate: 2500ft/min - Ascent Speed: 250kts - Cruise Altitude: 8000ft - Cruise Speed: 250kts - Descent Rate: 1500ft/min - Descent Speed: 250kts

Route

LFJR ANG10 LFRS

ID Type Via Altitude Latitude Longitude Leg Dist Tot Dist Heading (true) Name
O LFJR APT - 0 ft / 0 m 47.55982˚ -0.31221˚ - 0 nm - Angers Marce
ANG10 FIX - 8,000 ft / 2,438 m 47.37278˚ -0.93222˚ 27 nm 27 nm 246° / 246° -
O LFRS APT - 0 ft / 0 m 47.15604˚ -1.61119˚ 30 nm 58 nm 245° / 245° Nantes_Atlantique

Altitude Profile

Advertisement - Login to hide

LFJR

Details ICAO LFJR (ANE)
Name Angers Marce
Region France
Timezone Europe/Paris (UTC+1.0)
Stats Elevation 194 ft / 59 m (AMSL)
Location 47.559822° -0.312207°
Runways 3
Magnetic Variation 0.135° W

METAR

LFJR 180530Z AUTO 27009KT 240V320 4200 -DZ BR OVC003 10/10 Q1024 NOSIG

Decode

TAF

Not found

Departure Runways

ID Width Length Bearing (true) Bearing (mag) Surface Threshold Offset Overrun Length
08 135 ft / 41 m 5,405 ft / 1,647 m 80.99° 81.12° Asphalt 120 ft / 37 m 0 ft / 0 m
08L 135 ft / 41 m 2,131 ft / 650 m 81.00° 81.13° Grass 0 ft / 0 m 0 ft / 0 m
08R 300 ft / 91 m 3,303 ft / 1,007 m 81.00° 81.13° Grass 0 ft / 0 m 0 ft / 0 m
26 135 ft / 41 m 5,405 ft / 1,647 m 261.01° 261.14° Asphalt 250 ft / 76 m 0 ft / 0 m
26L 300 ft / 91 m 3,303 ft / 1,007 m 261.00° 261.13° Grass 0 ft / 0 m 0 ft / 0 m
26R 135 ft / 41 m 2,131 ft / 650 m 261.00° 261.13° Grass 0 ft / 0 m 0 ft / 0 m

LFRS

Details ICAO LFRS (NTE)
Name Nantes_Atlantique
Region France
Timezone Europe/Paris (UTC+1.0)
Stats Elevation 89 ft / 27 m (AMSL)
Location 47.156040° -1.611186°
Runways 2
Magnetic Variation 0.509° W

METAR

LFRS 180530Z AUTO 28010KT 4000 -DZ BR OVC004 11/11 Q1025 NOSIG

Decode

TAF

TAF LFRS 172300Z 1800/1906 27008KT 9999 BKN012 TEMPO 1800/1810 3000 -RADZ BKN003 BECMG 1810/1812 36010KT BKN020

Decode

Destination Runways

ID Width Length Bearing (true) Bearing (mag) Surface Threshold Offset Overrun Length
03 148 ft / 45 m 9,526 ft / 2,903 m 27.35° 27.86° Asphalt 0 ft / 0 m 0 ft / 0 m
13 100 ft / 30 m 1,999 ft / 609 m 125.55° 126.06° Concrete 0 ft / 0 m 0 ft / 0 m
21 148 ft / 45 m 9,526 ft / 2,903 m 207.37° 207.88° Asphalt 689 ft / 210 m 0 ft / 0 m
31 100 ft / 30 m 1,999 ft / 609 m 305.56° 306.07° Concrete 0 ft / 0 m 0 ft / 0 m

Approach Navaids

Runway Type Ident Frequency Range Bearing (true) Bearing (mag) Slope Elevation
03 Localiser NT 109.90 MHz 27 nm / 50 km 27.42° 27.93° - 89 ft / 27 m (AMSL)
03 Glidescope NT 109.90 MHz 27 nm / 50 km 27.42° 27.93° 3.00° 89 ft / 27 m (AMSL)
03 DME NT 109.90 MHz 27 nm / 50 km - - - 89 ft / 27 m (AMSL)

Popular Alternatives